Time;durP1;ratioP1;P1;durP2;ratioP2;P2;SDS_P1;SDS_P2;PMS_P1;PMS_P2;Temp;Humidity;BMP_temperature;BMP_pressure;BME280_temperature;BME280_humidity;BME280_pressure;Samples;Min_cycle;Max_cycle;Signal;HPM_P1;HPM_P2
2021/04/11 00:00:18;;;;;;;9.07;4.23;;;;;;;;;;722568;189;1985679;-72
2021/04/11 00:02:44;;;;;;;8.97;4.63;;;;;;;;;;729214;189;915835;-73
2021/04/11 00:05:10;;;;;;;5.93;3.03;;;;;;;;;;730192;189;915303;-71
2021/04/11 00:07:36;;;;;;;14.00;3.70;;;;;;;;;;741599;189;1018041;-71
2021/04/11 00:10:02;;;;;;;7.93;3.60;;;;;;;;;;732984;189;919535;-72
2021/04/11 00:12:28;;;;;;;9.37;4.33;;;;;;;;;;736875;189;920784;-71
2021/04/11 00:14:54;;;;;;;6.83;3.87;;;;;;;;;;739640;189;913586;-71
2021/04/11 00:17:19;;;;;;;14.73;3.80;;;;;;;;;;738087;189;918636;-72
2021/04/11 00:19:45;;;;;;;8.45;3.53;;;;;;;;;;726519;189;1289554;-72
2021/04/11 00:22:11;;;;;;;9.07;3.77;;;;;;;;;;740275;189;918679;-71
2021/04/11 00:24:37;;;;;;;6.20;3.80;;;;;;;;;;735614;188;919233;-71
2021/04/11 00:27:03;;;;;;;6.87;3.53;;;;;;;;;;737748;189;918938;-72
2021/04/11 00:29:29;;;;;;;9.83;4.00;;;;;;;;;;738928;189;941213;-72
2021/04/11 00:31:55;;;;;;;6.40;3.53;;;;;;;;;;741401;186;918520;-72
2021/04/11 00:34:21;;;;;;;4.63;3.07;;;;;;;;;;737444;189;918420;-71
2021/04/11 00:36:48;;;;;;;5.30;3.10;;;;;;;;;;734539;189;919102;-71
2021/04/11 00:39:12;;;;;;;6.33;3.20;;;;;;;;;;739170;189;919947;-72
2021/04/11 00:41:38;;;;;;;8.10;3.40;;;;;;;;;;727028;189;1300438;-72
2021/04/11 00:44:04;;;;;;;7.78;3.70;;;;;;;;;;735460;189;918993;-71
2021/04/11 00:46:46;;;;;;;5.60;3.30;;;;;;;;;;739388;189;987118;-71
2021/04/11 00:49:13;;;;;;;6.57;3.60;;;;;;;;;;741183;189;921176;-70
2021/04/11 00:51:39;;;;;;;6.80;3.17;;;;;;;;;;729856;189;919064;-73
2021/04/11 00:54:05;;;;;;;4.23;3.00;;;;;;;;;;735064;189;1193699;-73
2021/04/11 00:56:32;;;;;;;7.55;3.35;;;;;;;;;;739654;189;919337;-69
2021/04/11 00:58:57;;;;;;;7.73;3.30;;;;;;;;;;738776;189;918579;-71
2021/04/11 01:01:23;;;;;;;5.60;2.80;;;;;;;;;;733105;189;918666;-70
2021/04/11 01:03:51;;;;;;;7.40;3.10;;;;;;;;;;735896;189;918982;-68
2021/04/11 01:06:16;;;;;;;3.70;2.60;;;;;;;;;;744029;189;919130;-71
2021/04/11 01:08:42;;;;;;;6.50;3.97;;;;;;;;;;729447;189;920031;-72
2021/04/11 01:11:08;;;;;;;8.05;3.65;;;;;;;;;;733629;189;919073;-73
2021/04/11 01:13:34;;;;;;;6.70;3.23;;;;;;;;;;736340;189;918129;-73
2021/04/11 01:16:00;;;;;;;6.17;3.43;;;;;;;;;;736827;189;919694;-72
2021/04/11 01:18:26;;;;;;;5.30;3.33;;;;;;;;;;735363;189;918704;-70
2021/04/11 01:20:52;;;;;;;7.30;3.07;;;;;;;;;;740757;189;918766;-74
2021/04/11 01:23:21;;;;;;;7.43;3.20;;;;;;;;;;735639;189;919009;-71
2021/04/11 01:25:47;;;;;;;4.97;3.00;;;;;;;;;;729100;189;919611;-71
2021/04/11 01:28:14;;;;;;;5.10;3.80;;;;;;;;;;734392;189;1381487;-73
2021/04/11 01:30:40;;;;;;;9.10;3.30;;;;;;;;;;738577;189;917844;-71
2021/04/11 01:33:05;;;;;;;7.77;3.70;;;;;;;;;;732785;189;917716;-71
2021/04/11 01:35:31;;;;;;;7.97;3.15;;;;;;;;;;736223;189;919582;-71
2021/04/11 01:37:57;;;;;;;5.87;4.90;;;;;;;;;;741034;188;919208;-72
2021/04/11 01:40:23;;;;;;;11.07;5.37;;;;;;;;;;740223;189;921515;-70
2021/04/11 01:42:50;;;;;;;7.47;3.70;;;;;;;;;;732478;189;919378;-76
2021/04/11 01:45:15;;;;;;;7.43;3.90;;;;;;;;;;736775;189;921091;-71
2021/04/11 01:47:41;;;;;;;5.07;2.80;;;;;;;;;;734523;189;920149;-71
2021/04/11 01:50:08;;;;;;;4.23;2.60;;;;;;;;;;731208;189;992517;-71
2021/04/11 01:52:33;;;;;;;5.83;3.00;;;;;;;;;;736729;189;919017;-70
2021/04/11 01:54:59;;;;;;;6.23;2.87;;;;;;;;;;740931;189;917974;-72
2021/04/11 01:57:25;;;;;;;5.60;4.00;;;;;;;;;;737260;189;918818;-71
2021/04/11 01:59:51;;;;;;;7.33;3.53;;;;;;;;;;732698;189;941756;-71
2021/04/11 02:02:17;;;;;;;5.50;5.00;;;;;;;;;;742050;189;919001;-70
2021/04/11 02:04:43;;;;;;;6.43;2.90;;;;;;;;;;733719;189;919601;-71
2021/04/11 02:07:09;;;;;;;5.40;2.63;;;;;;;;;;730458;189;1362490;-71
2021/04/11 02:09:34;;;;;;;4.60;3.10;;;;;;;;;;731957;189;923350;-70
2021/04/11 02:12:00;;;;;;;11.67;3.10;;;;;;;;;;742632;186;919226;-71
2021/04/11 02:14:26;;;;;;;6.00;3.30;;;;;;;;;;733428;189;943294;-72
2021/04/11 02:16:52;;;;;;;6.40;3.53;;;;;;;;;;734103;189;918838;-71
2021/04/11 02:19:18;;;;;;;4.63;2.93;;;;;;;;;;733514;189;919659;-71
2021/04/11 02:21:44;;;;;;;5.90;4.03;;;;;;;;;;740688;189;918550;-72
2021/04/11 02:24:10;;;;;;;5.27;3.63;;;;;;;;;;736903;189;919655;-72
2021/04/11 02:26:36;;;;;;;5.53;3.70;;;;;;;;;;735526;189;929991;-73
2021/04/11 02:29:03;;;;;;;13.43;4.83;;;;;;;;;;728271;189;924207;-71
2021/04/11 02:31:29;;;;;;;5.00;2.87;;;;;;;;;;732598;189;920001;-72
2021/04/11 02:33:55;;;;;;;8.00;2.93;;;;;;;;;;735581;189;919474;-72
2021/04/11 02:36:21;;;;;;;6.10;2.63;;;;;;;;;;736672;189;919504;-72
2021/04/11 02:38:46;;;;;;;7.73;3.20;;;;;;;;;;732951;189;921331;-72
2021/04/11 02:41:12;;;;;;;7.50;2.67;;;;;;;;;;732401;189;919355;-71
2021/04/11 02:43:38;;;;;;;3.80;2.77;;;;;;;;;;740156;189;919134;-71
2021/04/11 02:46:04;;;;;;;4.57;3.13;;;;;;;;;;735513;189;1016100;-72
2021/04/11 02:48:30;;;;;;;6.67;2.97;;;;;;;;;;737971;187;915155;-72
2021/04/11 02:50:55;;;;;;;6.33;3.30;;;;;;;;;;737031;189;914399;-71
2021/04/11 02:53:21;;;;;;;6.13;2.90;;;;;;;;;;738861;189;918618;-72
2021/04/11 02:55:47;;;;;;;8.30;3.80;;;;;;;;;;732636;189;1095440;-70
2021/04/11 02:58:14;;;;;;;6.20;3.30;;;;;;;;;;743883;189;914553;-71
2021/04/11 03:00:40;;;;;;;7.57;3.10;;;;;;;;;;738099;189;919361;-71
2021/04/11 03:03:06;;;;;;;8.20;4.03;;;;;;;;;;733312;186;918079;-72
2021/04/11 03:05:31;;;;;;;7.17;3.40;;;;;;;;;;735489;189;919186;-72
2021/04/11 03:07:58;;;;;;;7.20;3.97;;;;;;;;;;741773;189;919295;-71
2021/04/11 03:10:38;;;;;;;9.03;3.40;;;;;;;;;;735827;189;921009;-72
2021/04/11 03:13:04;;;;;;;15.23;3.40;;;;;;;;;;735244;189;917478;-74
2021/04/11 03:15:30;;;;;;;5.22;3.30;;;;;;;;;;738176;189;944762;-72
2021/04/11 03:17:56;;;;;;;5.60;3.03;;;;;;;;;;739259;189;625944;-72
2021/04/11 03:20:22;;;;;;;6.20;3.30;;;;;;;;;;734459;189;919065;-74
2021/04/11 03:22:48;;;;;;;6.00;2.50;;;;;;;;;;729015;189;1148501;-74
2021/04/11 03:25:14;;;;;;;5.37;2.62;;;;;;;;;;743129;189;918993;-73
2021/04/11 03:27:39;;;;;;;6.50;3.80;;;;;;;;;;729880;189;918950;-73
2021/04/11 03:30:06;;;;;;;9.33;4.87;;;;;;;;;;731865;189;919111;-74
2021/04/11 03:32:32;;;;;;;6.32;3.10;;;;;;;;;;731722;189;918230;-72
2021/04/11 03:34:58;;;;;;;7.50;4.10;;;;;;;;;;743479;189;918136;-73
2021/04/11 03:37:24;;;;;;;8.47;3.17;;;;;;;;;;730894;189;919368;-73
2021/04/11 03:39:50;;;;;;;15.37;3.50;;;;;;;;;;735210;189;919311;-73
2021/04/11 03:42:16;;;;;;;5.30;2.70;;;;;;;;;;737459;189;920033;-73
2021/04/11 03:44:42;;;;;;;5.90;3.13;;;;;;;;;;730488;188;1600920;-74
2021/04/11 03:47:11;;;;;;;8.73;3.20;;;;;;;;;;732818;189;920361;-72
2021/04/11 03:49:43;;;;;;;6.50;3.70;;;;;;;;;;740001;189;918304;-74
2021/04/11 03:52:10;;;;;;;7.97;3.30;;;;;;;;;;738973;189;1021985;-73
2021/04/11 03:54:36;;;;;;;5.47;3.50;;;;;;;;;;732802;189;1007993;-73
2021/04/11 03:57:07;;;;;;;6.03;3.60;;;;;;;;;;728553;189;920371;-73
2021/04/11 03:59:33;;;;;;;9.43;3.50;;;;;;;;;;742118;187;917658;-73
2021/04/11 04:01:59;;;;;;;6.10;3.10;;;;;;;;;;735638;189;922021;-72
2021/04/11 04:04:25;;;;;;;5.93;3.50;;;;;;;;;;727851;189;944353;-73
2021/04/11 04:07:08;;;;;;;7.33;4.07;;;;;;;;;;736191;189;918845;-72
2021/04/11 04:09:32;;;;;;;7.00;3.57;;;;;;;;;;727122;189;929211;-73
2021/04/11 04:12:02;;;;;;;7.80;4.28;;;;;;;;;;735692;190;915174;-72
2021/04/11 04:14:35;;;;;;;9.80;4.27;;;;;;;;;;731442;189;1020813;-74
2021/04/11 04:17:16;;;;;;;7.85;4.22;;;;;;;;;;733973;189;915278;-73
2021/04/11 04:19:44;;;;;;;9.50;5.00;;;;;;;;;;726343;190;914917;-73
2021/04/11 04:22:12;;;;;;;9.20;5.00;;;;;;;;;;737256;189;918400;-73
2021/04/11 04:24:39;;;;;;;8.57;3.23;;;;;;;;;;737977;189;1545530;-73
2021/04/11 04:27:05;;;;;;;8.37;4.33;;;;;;;;;;735741;189;918764;-72
2021/04/11 04:29:32;;;;;;;7.57;3.33;;;;;;;;;;727023;189;918746;-73
2021/04/11 04:32:16;;;;;;;14.13;4.10;;;;;;;;;;738913;189;918907;-73
2021/04/11 04:34:44;;;;;;;14.13;5.63;;;;;;;;;;741207;189;625486;-75
2021/04/11 04:37:14;;;;;;;8.45;5.22;;;;;;;;;;736642;189;919420;-74
2021/04/11 04:39:55;;;;;;;7.80;4.40;;;;;;;;;;733346;189;917980;-74
2021/04/11 04:42:30;;;;;;;10.10;5.30;;;;;;;;;;735712;189;918390;-73
2021/04/11 04:45:13;;;;;;;7.90;4.30;;;;;;;;;;734553;189;919115;-72
2021/04/11 04:47:40;;;;;;;8.17;4.70;;;;;;;;;;729944;189;917441;-73
2021/04/11 04:50:06;;;;;;;8.30;3.80;;;;;;;;;;726057;189;1161019;-71
2021/04/11 04:52:32;;;;;;;6.93;3.33;;;;;;;;;;739035;189;919699;-72
2021/04/11 04:54:58;;;;;;;7.75;3.37;;;;;;;;;;734080;189;919081;-71
2021/04/11 04:57:30;;;;;;;5.87;3.10;;;;;;;;;;730129;189;919151;-70
2021/04/11 05:00:07;;;;;;;5.77;2.50;;;;;;;;;;742784;189;919457;-72
2021/04/11 05:02:34;;;;;;;4.13;2.70;;;;;;;;;;737480;189;912179;-72
2021/04/11 05:05:00;;;;;;;4.30;2.37;;;;;;;;;;736560;189;729037;-71
2021/04/11 05:07:25;;;;;;;4.87;2.87;;;;;;;;;;737889;189;644537;-72
2021/04/11 05:09:52;;;;;;;7.13;2.83;;;;;;;;;;739993;189;634635;-75
2021/04/11 05:12:18;;;;;;;11.10;4.00;;;;;;;;;;737737;188;645276;-74
2021/04/11 05:14:45;;;;;;;5.00;2.60;;;;;;;;;;736951;189;650111;-73
2021/04/11 05:17:14;;;;;;;5.57;2.20;;;;;;;;;;734292;189;624762;-73
2021/04/11 05:19:40;;;;;;;6.40;4.05;;;;;;;;;;741078;189;916863;-72
2021/04/11 05:22:16;;;;;;;3.60;1.90;;;;;;;;;;731713;189;917812;-72
2021/04/11 05:24:41;;;;;;;8.50;3.90;;;;;;;;;;737523;189;919652;-73
2021/04/11 05:27:08;;;;;;;6.70;2.87;;;;;;;;;;733486;189;926455;-73
2021/04/11 05:29:38;;;;;;;3.97;2.53;;;;;;;;;;740739;189;918056;-74
2021/04/11 05:32:04;;;;;;;4.70;2.60;;;;;;;;;;724499;189;2439412;-73
2021/04/11 05:34:30;;;;;;;5.50;2.53;;;;;;;;;;738140;189;914694;-74
2021/04/11 05:37:00;;;;;;;6.03;2.90;;;;;;;;;;736067;189;915541;-75
2021/04/11 05:39:40;;;;;;;5.10;2.77;;;;;;;;;;733387;189;916561;-73
2021/04/11 05:42:08;;;;;;;9.03;3.13;;;;;;;;;;728040;189;922070;-73
2021/04/11 05:44:37;;;;;;;4.50;2.37;;;;;;;;;;732606;189;916551;-74
2021/04/11 05:47:04;;;;;;;3.63;2.90;;;;;;;;;;737755;189;910970;-73
2021/04/11 05:49:29;;;;;;;7.00;3.20;;;;;;;;;;737755;189;916241;-70
2021/04/11 05:51:56;;;;;;;4.30;2.53;;;;;;;;;;732802;189;916372;-72
2021/04/11 05:54:23;;;;;;;10.80;2.93;;;;;;;;;;734094;189;915224;-74
2021/04/11 05:56:48;;;;;;;5.97;3.03;;;;;;;;;;740366;189;922050;-73
2021/04/11 05:59:15;;;;;;;5.90;3.50;;;;;;;;;;735941;189;1015622;-72
2021/04/11 06:01:41;;;;;;;10.83;3.73;;;;;;;;;;734487;189;917918;-74
2021/04/11 06:04:07;;;;;;;7.97;3.00;;;;;;;;;;730024;189;916742;-73
2021/04/11 06:06:33;;;;;;;6.80;3.30;;;;;;;;;;742484;189;912471;-71
2021/04/11 06:08:59;;;;;;;6.45;2.72;;;;;;;;;;734334;189;916755;-70
2021/04/11 06:11:25;;;;;;;5.22;3.08;;;;;;;;;;737169;189;916059;-71
2021/04/11 06:13:52;;;;;;;6.57;4.20;;;;;;;;;;730019;189;918537;-70
2021/04/11 06:16:18;;;;;;;6.40;3.73;;;;;;;;;;732837;189;927010;-72
2021/04/11 06:18:45;;;;;;;7.33;2.97;;;;;;;;;;732746;189;1042431;-71
2021/04/11 06:21:12;;;;;;;5.10;2.83;;;;;;;;;;733778;189;918136;-69
2021/04/11 06:23:42;;;;;;;6.90;3.17;;;;;;;;;;742542;188;918037;-71
2021/04/11 06:26:09;;;;;;;7.80;3.17;;;;;;;;;;733585;189;946856;-72
2021/04/11 06:28:37;;;;;;;4.53;2.80;;;;;;;;;;736879;189;918396;-72
2021/04/11 06:31:03;;;;;;;5.93;2.93;;;;;;;;;;737735;189;919513;-74
2021/04/11 06:33:27;;;;;;;7.60;3.43;;;;;;;;;;734139;189;919376;-70
2021/04/11 06:35:55;;;;;;;11.50;3.70;;;;;;;;;;734624;189;923820;-71
2021/04/11 06:38:20;;;;;;;4.37;3.30;;;;;;;;;;734673;189;1019060;-70
2021/04/11 06:41:03;;;;;;;5.13;3.00;;;;;;;;;;740301;189;882097;-70
2021/04/11 06:43:29;;;;;;;5.67;3.20;;;;;;;;;;720257;192;941505;-70
2021/04/11 06:45:56;;;;;;;7.10;3.30;;;;;;;;;;733694;189;918759;-73
2021/04/11 06:48:22;;;;;;;7.07;3.67;;;;;;;;;;736922;189;918705;-72
2021/04/11 06:51:03;;;;;;;11.07;3.60;;;;;;;;;;740374;189;921668;-73
2021/04/11 06:53:47;;;;;;;7.63;2.90;;;;;;;;;;723834;189;917855;-73
2021/04/11 06:56:19;;;;;;;7.95;2.90;;;;;;;;;;721684;192;1119229;-73
2021/04/11 06:58:49;;;;;;;7.10;3.33;;;;;;;;;;735599;189;918985;-71
2021/04/11 07:01:21;;;;;;;9.20;3.47;;;;;;;;;;734004;189;918961;-71
2021/04/11 07:03:53;;;;;;;7.12;2.92;;;;;;;;;;733959;189;919459;-72
2021/04/11 07:06:35;;;;;;;9.30;3.90;;;;;;;;;;735095;189;917408;-72
2021/04/11 07:09:04;;;;;;;6.03;2.80;;;;;;;;;;727929;189;919211;-71
2021/04/11 07:11:50;;;;;;;12.03;4.33;;;;;;;;;;735524;189;916219;-71
2021/04/11 07:14:21;;;;;;;8.57;3.87;;;;;;;;;;729773;189;919032;-73
2021/04/11 07:16:53;;;;;;;4.10;2.53;;;;;;;;;;734007;189;918971;-70
2021/04/11 07:19:19;;;;;;;5.37;3.03;;;;;;;;;;732507;189;919904;-72
2021/04/11 07:22:00;;;;;;;8.85;3.15;;;;;;;;;;733081;189;919107;-72
2021/04/11 07:24:29;;;;;;;3.93;2.93;;;;;;;;;;730628;189;1021226;-72
2021/04/11 07:27:07;;;;;;;7.57;3.07;;;;;;;;;;734698;189;1577574;-72
2021/04/11 07:29:39;;;;;;;3.83;3.00;;;;;;;;;;737426;189;915035;-71
2021/04/11 07:32:08;;;;;;;10.27;2.90;;;;;;;;;;728710;189;1017637;-72
2021/04/11 07:34:49;;;;;;;4.40;3.23;;;;;;;;;;732357;188;921077;-70
2021/04/11 07:37:20;;;;;;;5.10;2.57;;;;;;;;;;731192;189;914950;-71
2021/04/11 07:39:50;;;;;;;5.75;2.40;;;;;;;;;;731479;189;919619;-71
2021/04/11 07:42:22;;;;;;;6.63;2.90;;;;;;;;;;732044;189;933969;-73
2021/04/11 07:44:56;;;;;;;9.13;3.20;;;;;;;;;;738267;189;922293;-71
2021/04/11 07:47:22;;;;;;;5.00;2.60;;;;;;;;;;731698;189;1106514;-72
2021/04/11 07:49:50;;;;;;;9.67;3.87;;;;;;;;;;732196;189;919309;-71
2021/04/11 07:52:32;;;;;;;5.77;2.90;;;;;;;;;;730767;189;917689;-70
2021/04/11 07:55:00;;;;;;;6.03;2.73;;;;;;;;;;723178;193;918349;-71
2021/04/11 07:57:32;;;;;;;5.87;2.57;;;;;;;;;;735050;189;919729;-71
2021/04/11 08:00:03;;;;;;;6.60;2.70;;;;;;;;;;735635;189;919281;-71
2021/04/11 08:02:33;;;;;;;6.20;3.10;;;;;;;;;;733075;189;919278;-72
2021/04/11 08:05:04;;;;;;;5.28;3.05;;;;;;;;;;735234;189;919547;-69
2021/04/11 08:07:31;;;;;;;7.73;2.53;;;;;;;;;;739269;189;925523;-70
2021/04/11 08:10:08;;;;;;;9.00;2.37;;;;;;;;;;734594;189;919324;-72
2021/04/11 08:12:39;;;;;;;10.23;3.30;;;;;;;;;;727849;189;918240;-71
2021/04/11 08:15:09;;;;;;;7.40;3.10;;;;;;;;;;720848;193;916629;-72
2021/04/11 08:17:36;;;;;;;7.40;3.37;;;;;;;;;;733250;189;921406;-70
2021/04/11 08:20:17;;;;;;;6.17;3.80;;;;;;;;;;734099;189;935489;-71
2021/04/11 08:22:49;;;;;;;4.75;2.70;;;;;;;;;;719378;193;919733;-70
2021/04/11 08:25:16;;;;;;;6.33;3.10;;;;;;;;;;734225;189;919521;-72
2021/04/11 08:27:45;;;;;;;10.40;2.60;;;;;;;;;;737560;189;917226;-72
2021/04/11 08:30:26;;;;;;;4.47;2.80;;;;;;;;;;732190;189;918818;-72
2021/04/11 08:33:06;;;;;;;5.00;2.77;;;;;;;;;;734815;189;872397;-67
2021/04/11 08:35:38;;;;;;;8.88;2.70;;;;;;;;;;738423;189;1056444;-70
2021/04/11 08:38:20;;;;;;;5.50;3.20;;;;;;;;;;743759;186;918193;-70
2021/04/11 08:40:47;;;;;;;5.17;2.60;;;;;;;;;;736053;189;919274;-70
2021/04/11 08:43:19;;;;;;;5.27;2.70;;;;;;;;;;735052;189;917929;-72
2021/04/11 08:45:45;;;;;;;7.72;3.00;;;;;;;;;;729532;188;919110;-71
2021/04/11 08:48:11;;;;;;;7.03;2.83;;;;;;;;;;737210;189;918104;-73
2021/04/11 08:50:42;;;;;;;4.87;2.30;;;;;;;;;;727262;191;873808;-70
2021/04/11 08:53:09;;;;;;;6.50;3.30;;;;;;;;;;735388;189;919207;-71
2021/04/11 08:55:36;;;;;;;3.00;2.40;;;;;;;;;;728413;189;1159128;-71
2021/04/11 08:58:06;;;;;;;5.10;2.93;;;;;;;;;;744856;189;904455;-70
2021/04/11 09:00:48;;;;;;;12.80;3.10;;;;;;;;;;737440;188;920256;-72
2021/04/11 09:03:18;;;;;;;6.90;3.10;;;;;;;;;;740884;189;917802;-71
2021/04/11 09:05:49;;;;;;;13.50;3.67;;;;;;;;;;733058;189;940812;-69
2021/04/11 09:08:15;;;;;;;8.23;3.30;;;;;;;;;;737681;189;919767;-69
2021/04/11 09:10:48;;;;;;;5.17;2.87;;;;;;;;;;738695;189;920878;-71
2021/04/11 09:13:14;;;;;;;4.00;2.60;;;;;;;;;;738885;189;921411;-72
2021/04/11 09:15:41;;;;;;;4.27;3.17;;;;;;;;;;734732;189;916132;-71
2021/04/11 09:18:09;;;;;;;5.80;2.63;;;;;;;;;;733364;189;1105073;-69
2021/04/11 09:20:41;;;;;;;4.00;2.80;;;;;;;;;;739566;189;914750;-71
2021/04/11 09:23:17;;;;;;;3.53;3.23;;;;;;;;;;740905;189;917943;-71
2021/04/11 09:25:44;;;;;;;5.40;2.60;;;;;;;;;;733601;189;919413;-73
2021/04/11 09:28:27;;;;;;;5.43;2.15;;;;;;;;;;736073;189;924940;-69
2021/04/11 09:30:59;;;;;;;4.90;2.10;;;;;;;;;;723829;189;918716;-71
2021/04/11 09:33:31;;;;;;;6.53;2.63;;;;;;;;;;733202;189;921511;-73
2021/04/11 09:36:15;;;;;;;9.10;2.57;;;;;;;;;;733693;189;918760;-71
2021/04/11 09:38:44;;;;;;;5.22;3.15;;;;;;;;;;712803;193;919381;-70
2021/04/11 09:41:25;;;;;;;4.80;2.70;;;;;;;;;;740471;189;918567;-71
2021/04/11 09:44:08;;;;;;;4.60;2.80;;;;;;;;;;737980;189;919026;-71
2021/04/11 09:46:49;;;;;;;5.80;2.63;;;;;;;;;;720367;189;864459;-71
2021/04/11 09:49:18;;;;;;;9.73;3.30;;;;;;;;;;725679;190;919496;-73
2021/04/11 09:51:47;;;;;;;6.40;2.97;;;;;;;;;;736939;189;918788;-71
2021/04/11 09:54:19;;;;;;;4.33;2.83;;;;;;;;;;735472;189;918378;-71
2021/04/11 09:56:45;;;;;;;8.87;2.63;;;;;;;;;;737137;189;932737;-69
2021/04/11 09:59:28;;;;;;;8.07;2.73;;;;;;;;;;737894;188;914288;-68
2021/04/11 10:01:54;;;;;;;5.80;2.90;;;;;;;;;;724810;192;819550;-71
2021/04/11 10:04:26;;;;;;;5.27;2.67;;;;;;;;;;736545;189;917951;-72
2021/04/11 10:06:57;;;;;;;5.60;3.20;;;;;;;;;;737790;189;919250;-71
2021/04/11 10:09:25;;;;;;;6.50;2.90;;;;;;;;;;734086;189;920320;-70
2021/04/11 10:12:00;;;;;;;4.67;2.60;;;;;;;;;;738158;189;920276;-71
2021/04/11 10:14:47;;;;;;;5.57;2.73;;;;;;;;;;730998;189;919338;-69
2021/04/11 10:17:31;;;;;;;4.37;2.70;;;;;;;;;;735510;186;917525;-71
2021/04/11 10:20:16;;;;;;;3.63;2.33;;;;;;;;;;738019;188;629835;-69
2021/04/11 10:22:42;;;;;;;8.67;2.80;;;;;;;;;;732508;189;919703;-69
2021/04/11 10:25:08;;;;;;;5.37;2.80;;;;;;;;;;733137;189;1308000;-69
2021/04/11 10:27:35;;;;;;;5.30;3.30;;;;;;;;;;732409;189;919493;-71
2021/04/11 10:30:02;;;;;;;5.83;2.80;;;;;;;;;;737155;189;627219;-69
2021/04/11 10:32:30;;;;;;;6.90;2.57;;;;;;;;;;736190;189;1224641;-70
2021/04/11 10:35:07;;;;;;;4.27;2.80;;;;;;;;;;729746;189;919359;-71
2021/04/11 10:37:33;;;;;;;4.37;2.62;;;;;;;;;;736603;189;919128;-71
2021/04/11 10:40:01;;;;;;;9.40;2.80;;;;;;;;;;735973;189;817900;-70
2021/04/11 10:42:42;;;;;;;4.20;2.57;;;;;;;;;;735529;189;915377;-71
2021/04/11 10:45:08;;;;;;;4.93;2.77;;;;;;;;;;724984;192;915955;-68
2021/04/11 10:47:34;;;;;;;5.63;2.60;;;;;;;;;;737415;189;918977;-70
2021/04/11 10:50:02;;;;;;;6.87;2.80;;;;;;;;;;731331;189;1009200;-71
2021/04/11 10:52:34;;;;;;;4.50;2.80;;;;;;;;;;741043;189;919467;-69
2021/04/11 10:55:00;;;;;;;4.60;2.03;;;;;;;;;;735085;189;919710;-71
2021/04/11 10:57:26;;;;;;;5.40;2.40;;;;;;;;;;732923;189;922755;-68
2021/04/11 11:00:05;;;;;;;4.33;2.70;;;;;;;;;;730116;189;918805;-71
2021/04/11 11:02:36;;;;;;;9.23;3.73;;;;;;;;;;741609;189;920176;-70
2021/04/11 11:05:02;;;;;;;6.90;3.20;;;;;;;;;;737492;189;918480;-69
2021/04/11 11:07:32;;;;;;;7.23;2.80;;;;;;;;;;735584;189;919174;-70
2021/04/11 11:10:04;;;;;;;6.87;2.70;;;;;;;;;;735637;188;919025;-71
2021/04/11 11:12:45;;;;;;;4.67;2.47;;;;;;;;;;734924;189;918884;-70
2021/04/11 11:15:17;;;;;;;5.27;2.70;;;;;;;;;;736791;188;919306;-70
2021/04/11 11:17:46;;;;;;;5.67;2.70;;;;;;;;;;734225;189;919348;-67
2021/04/11 11:20:16;;;;;;;8.07;2.53;;;;;;;;;;732766;189;918574;-70
2021/04/11 11:22:58;;;;;;;3.20;2.30;;;;;;;;;;734569;189;920134;-71
2021/04/11 11:25:24;;;;;;;4.20;2.50;;;;;;;;;;726810;189;919508;-71
2021/04/11 11:27:51;;;;;;;5.40;2.20;;;;;;;;;;736684;186;1021455;-68
2021/04/11 11:30:19;;;;;;;5.53;2.53;;;;;;;;;;743560;189;619794;-71
2021/04/11 11:32:44;;;;;;;5.90;2.30;;;;;;;;;;738215;189;680268;-70
2021/04/11 11:35:10;;;;;;;7.20;2.60;;;;;;;;;;737747;189;919987;-70
2021/04/11 11:37:55;;;;;;;3.80;2.10;;;;;;;;;;736938;189;918362;-70
2021/04/11 11:40:20;;;;;;;5.80;2.77;;;;;;;;;;732575;189;920111;-69
2021/04/11 11:42:50;;;;;;;9.53;2.63;;;;;;;;;;734908;189;919364;-70
2021/04/11 11:45:16;;;;;;;3.05;1.92;;;;;;;;;;733508;189;1019885;-69
2021/04/11 11:47:42;;;;;;;4.47;2.87;;;;;;;;;;732431;189;918881;-71
2021/04/11 11:50:12;;;;;;;8.03;2.80;;;;;;;;;;742383;189;918135;-71
2021/04/11 11:52:38;;;;;;;5.33;1.90;;;;;;;;;;731972;189;1481495;-71
2021/04/11 11:55:08;;;;;;;4.60;2.20;;;;;;;;;;736558;189;919680;-71
2021/04/11 11:57:37;;;;;;;4.50;2.70;;;;;;;;;;733668;189;917181;-70
2021/04/11 12:00:05;;;;;;;3.27;2.07;;;;;;;;;;743627;186;949446;-67
2021/04/11 12:02:32;;;;;;;6.03;2.53;;;;;;;;;;731110;189;919411;-69
2021/04/11 12:05:04;;;;;;;5.68;3.62;;;;;;;;;;732036;189;919963;-69
2021/04/11 12:07:31;;;;;;;4.10;2.27;;;;;;;;;;731561;189;911302;-70
2021/04/11 12:10:01;;;;;;;4.63;2.43;;;;;;;;;;738111;188;910227;-71
2021/04/11 12:12:27;;;;;;;4.40;1.77;;;;;;;;;;734851;189;945682;-70
2021/04/11 12:14:57;;;;;;;4.35;2.22;;;;;;;;;;737181;189;914583;-72
2021/04/11 12:17:24;;;;;;;15.10;3.03;;;;;;;;;;738020;189;912872;-70
2021/04/11 12:19:57;;;;;;;5.27;2.10;;;;;;;;;;738140;189;919747;-69
2021/04/11 12:22:24;;;;;;;3.90;2.83;;;;;;;;;;737997;189;909362;-71
2021/04/11 12:24:53;;;;;;;3.27;2.10;;;;;;;;;;737810;189;628089;-69
2021/04/11 12:27:23;;;;;;;6.73;2.23;;;;;;;;;;736864;189;914419;-70
2021/04/11 12:29:49;;;;;;;3.90;2.10;;;;;;;;;;739067;189;898965;-70
2021/04/11 12:32:16;;;;;;;2.43;1.60;;;;;;;;;;736344;189;916216;-72
2021/04/11 12:34:43;;;;;;;7.70;2.20;;;;;;;;;;732859;189;904825;-69
2021/04/11 12:37:13;;;;;;;4.37;1.67;;;;;;;;;;743734;189;897754;-72
2021/04/11 12:39:39;;;;;;;3.17;2.10;;;;;;;;;;734603;189;914410;-69
2021/04/11 12:42:10;;;;;;;3.90;2.07;;;;;;;;;;737257;189;916220;-71
2021/04/11 12:44:36;;;;;;;11.20;2.43;;;;;;;;;;732478;189;915984;-71
2021/04/11 12:47:08;;;;;;;7.67;2.37;;;;;;;;;;740301;189;914382;-73
2021/04/11 12:49:40;;;;;;;5.80;1.83;;;;;;;;;;731709;189;916096;-73
2021/04/11 12:52:06;;;;;;;6.50;2.00;;;;;;;;;;729128;189;920941;-75
2021/04/11 12:54:47;;;;;;;3.60;1.70;;;;;;;;;;733625;189;919283;-71
2021/04/11 12:57:19;;;;;;;5.60;2.37;;;;;;;;;;728161;189;919080;-70
2021/04/11 12:59:50;;;;;;;4.57;1.90;;;;;;;;;;735515;189;1738342;-70
2021/04/11 13:02:19;;;;;;;4.93;2.20;;;;;;;;;;738508;189;919188;-73
2021/04/11 13:04:46;;;;;;;14.53;2.40;;;;;;;;;;731679;189;919059;-72
2021/04/11 13:07:17;;;;;;;3.93;2.60;;;;;;;;;;732589;189;919434;-68
2021/04/11 13:10:00;;;;;;;11.53;2.57;;;;;;;;;;733878;189;909038;-67
2021/04/11 13:12:27;;;;;;;4.13;2.10;;;;;;;;;;721046;189;918364;-72
2021/04/11 13:14:54;;;;;;;3.50;2.07;;;;;;;;;;739284;189;919351;-70
2021/04/11 13:17:30;;;;;;;8.50;1.80;;;;;;;;;;734277;189;997003;-79
2021/04/11 13:19:58;;;;;;;3.40;1.90;;;;;;;;;;730514;189;890809;-77
2021/04/11 13:22:24;;;;;;;5.53;3.03;;;;;;;;;;734156;189;1020087;-70
2021/04/11 13:24:55;;;;;;;4.83;2.63;;;;;;;;;;736793;189;911506;-72
2021/04/11 13:27:23;;;;;;;3.30;2.23;;;;;;;;;;737329;189;913627;-69
2021/04/11 13:30:08;;;;;;;5.20;2.33;;;;;;;;;;733933;189;973490;-69
2021/04/11 13:32:49;;;;;;;3.92;2.22;;;;;;;;;;729023;189;921632;-70
2021/04/11 13:35:22;;;;;;;2.90;1.97;;;;;;;;;;738425;189;918736;-71
2021/04/11 13:37:49;;;;;;;9.40;2.15;;;;;;;;;;736327;189;915559;-66
2021/04/11 13:40:15;;;;;;;5.10;2.40;;;;;;;;;;742609;189;945338;-74
2021/04/11 13:42:46;;;;;;;4.00;2.40;;;;;;;;;;740480;189;757212;-66
2021/04/11 13:45:16;;;;;;;4.03;2.00;;;;;;;;;;738337;189;915682;-67
2021/04/11 13:47:56;;;;;;;10.47;2.80;;;;;;;;;;733348;189;967429;-66
2021/04/11 13:50:22;;;;;;;5.10;1.77;;;;;;;;;;734467;189;918246;-73
2021/04/11 13:52:50;;;;;;;3.30;2.40;;;;;;;;;;740448;189;657872;-73
2021/04/11 13:55:32;;;;;;;12.47;3.20;;;;;;;;;;735119;189;894816;-70
2021/04/11 13:58:02;;;;;;;6.03;1.97;;;;;;;;;;730438;189;919294;-68
2021/04/11 14:00:43;;;;;;;4.80;2.57;;;;;;;;;;736075;189;1022244;-71
2021/04/11 14:03:09;;;;;;;3.60;2.30;;;;;;;;;;736279;189;917508;-67
2021/04/11 14:05:35;;;;;;;5.83;2.10;;;;;;;;;;736944;189;689643;-71
2021/04/11 14:08:03;;;;;;;3.90;2.23;;;;;;;;;;735126;189;918562;-68
2021/04/11 14:10:28;;;;;;;5.17;2.80;;;;;;;;;;737263;189;919193;-67
2021/04/11 14:13:09;;;;;;;9.53;2.50;;;;;;;;;;735492;189;919819;-70
2021/04/11 14:15:35;;;;;;;4.10;2.20;;;;;;;;;;728512;189;920797;-68
2021/04/11 14:18:02;;;;;;;6.07;2.53;;;;;;;;;;739176;189;919150;-70
2021/04/11 14:20:31;;;;;;;3.90;1.40;;;;;;;;;;733188;189;928016;-67
2021/04/11 14:23:13;;;;;;;4.50;2.37;;;;;;;;;;731927;189;918949;-68
2021/04/11 14:25:39;;;;;;;3.40;1.90;;;;;;;;;;731466;189;918381;-69
2021/04/11 14:28:09;;;;;;;3.80;2.30;;;;;;;;;;738253;189;919019;-69
2021/04/11 14:30:34;;;;;;;5.37;2.43;;;;;;;;;;735213;189;919268;-67
2021/04/11 14:33:01;;;;;;;8.03;2.90;;;;;;;;;;732371;189;919175;-69
2021/04/11 14:35:42;;;;;;;4.00;2.27;;;;;;;;;;735483;189;919300;-69
2021/04/11 14:38:14;;;;;;;3.40;2.43;;;;;;;;;;733842;189;919061;-70
2021/04/11 14:40:40;;;;;;;4.10;2.10;;;;;;;;;;742117;189;918575;-68